Terminal Aerodrome Forecast
Issued by NWS Pocatello, ID

Home | Current Version | Previous Version | Text Only | Print | Product List | Glossary On
Versions: 1 2 3 4 5 6 7 8 9 10 11 12 13 14 15 16 17 18 19 20 21 22 23 24 25
427
FTUS45 KPIH 112320
TAFBYI
TAF
KBYI 112320Z 1200/1224 VRB05KT P6SM FEW250
     FM120300 VRB03KT 4SM HZ FEW004 FEW250
     FM120800 12005KT 1SM BR OVC003
     FM121700 VRB05KT P6SM FEW008 FEW250=

USA.gov is the U.S. government's official web portal to all federal, state and local government web resources and services.